Endeavour — C6BE4 — position and weather

sailwx.info

Track history (hours):
 
Tides and Currents Weather Stations Pressure Air Temp Water Temp Dewpoint Dewpoint Depression Visibility Wind Speed Wind Dir Waves Ship Positions

Endeavour

Operator: Lindblad Expeditions

Last reported at 2019-Apr-05 09:39 UTC. Time now 2019-Apr-26 03:55 UTC.
Position S 33°09' E 017°46'.
Warning: this ship's position is 20 days out of date.

Length 190 m; draft 5.9 m.

Type: Cargo ship. MMSI: 311000239.

Date/timePositionNaut miles runAvg speedWind from/ knotsBaromVisibWave heightAir tempDewpointWater temp
2019-Apr-05 09:39S 33°09' E 017°46'9 8.7
2019-Apr-05 08:36S 33°04' E 017°55'  
2019-Apr-01 19:08S 33°04' E 017°55'15 0.9
2019-Apr-01 01:05S 33°14' E 017°41'4 1.4
2019-Mar-31 21:57S 33°14' E 017°46'5 0.2
2019-Mar-30 19:41S 33°13' E 017°40'9 3.7
2019-Mar-30 17:08S 33°15' E 017°51'212.9
2019-Mar-30 16:59S 33°17' E 017°52'712.8
2019-Mar-30 16:26S 33°24' E 017°55'712.6
2019-Mar-30 15:55S 33°30' E 017°57'612.5
2019-Mar-30 15:25S 33°36' E 017°59'1012.4
2019-Mar-30 14:37S 33°46' E 018°02'1013.0
2019-Mar-30 13:49S 33°56' E 018°05'412.9
2019-Mar-30 13:30S 33°60' E 018°05'612.9
2019-Mar-30 13:00S 34°06' E 018°07'612.8
2019-Mar-30 12:30S 34°12' E 018°10'613.1
2019-Mar-30 12:00S 34°18' E 018°13'713.5
2019-Mar-30 11:30S 34°24' E 018°16'611.8
2019-Mar-30 11:00S 34°29' E 018°21'612.5
2019-Mar-30 10:30S 34°31' E 018°28'612.6
2019-Mar-30 10:00S 34°33' E 018°35'612.6
2019-Mar-30 09:30S 34°36' E 018°42'612.4
2019-Mar-30 08:59S 34°39' E 018°49'612.1
2019-Mar-30 08:30S 34°41' E 018°55'712.2
2019-Mar-30 07:57S 34°44' E 019°03'  
2019-Mar-27 23:42S 29°58' E 031°17'313.8
2019-Mar-27 23:28S 29°56' E 031°14'612.9
2019-Mar-27 23:00S 29°53' E 031°08'4 7.1
2019-Mar-27 22:30S 29°51' E 031°04'2 0.2
2019-Mar-27 11:32S 29°53' E 031°02'0 3.7
2019-Mar-27 11:30S 29°53' E 031°03'4 7.3
2019-Mar-27 11:00S 29°50' E 031°05'8 7.5
2019-Mar-27 09:55S 29°45' E 031°13'1 2.5
2019-Mar-27 09:30S 29°44' E 031°14'0 0.2
2019-Mar-27 09:00S 29°44' E 031°14'0 0.0
2019-Mar-27 08:30S 29°44' E 031°14'0 0.0
2019-Mar-27 08:00S 29°44' E 031°14'0 0.1
2019-Mar-27 07:27S 29°44' E 031°14'0 0.1
2019-Mar-27 07:00S 29°44' E 031°14'3 5.3
2019-Mar-27 06:30S 29°44' E 031°17'612.8
2019-Mar-27 06:00S 29°40' E 031°23'813.2
2019-Mar-27 05:25S 29°36' E 031°31'  
Track history (hours):
 
Tides and Currents Weather Stations Pressure Air Temp Water Temp Dewpoint Dewpoint Depression Visibility Wind Speed Wind Dir Waves Ship Positions

Endeavour

Operator: Lindblad Expeditions

Last reported at 2019-Apr-05 09:39 UTC. Time now 2019-Apr-26 03:55 UTC.
Position S 33°09' E 017°46'.
Warning: this ship's position is 20 days out of date.

Length 190 m; draft 5.9 m.

Type: Cargo ship. MMSI: 311000239.

Date/timePositionNaut miles runAvg speedWind from/ knotsBaromVisibWave heightAir tempDewpointWater temp
2019-Apr-05 09:39S 33°09' E 017°46'9 8.7
2019-Apr-05 08:36S 33°04' E 017°55'  
2019-Apr-01 19:08S 33°04' E 017°55'15 0.9
2019-Apr-01 01:05S 33°14' E 017°41'4 1.4
2019-Mar-31 21:57S 33°14' E 017°46'5 0.2
2019-Mar-30 19:41S 33°13' E 017°40'9 3.7
2019-Mar-30 17:08S 33°15' E 017°51'212.9
2019-Mar-30 16:59S 33°17' E 017°52'712.8
2019-Mar-30 16:26S 33°24' E 017°55'712.6
2019-Mar-30 15:55S 33°30' E 017°57'612.5
2019-Mar-30 15:25S 33°36' E 017°59'1012.4
2019-Mar-30 14:37S 33°46' E 018°02'1013.0
2019-Mar-30 13:49S 33°56' E 018°05'412.9
2019-Mar-30 13:30S 33°60' E 018°05'612.9
2019-Mar-30 13:00S 34°06' E 018°07'612.8
2019-Mar-30 12:30S 34°12' E 018°10'613.1
2019-Mar-30 12:00S 34°18' E 018°13'713.5
2019-Mar-30 11:30S 34°24' E 018°16'611.8
2019-Mar-30 11:00S 34°29' E 018°21'612.5
2019-Mar-30 10:30S 34°31' E 018°28'612.6
2019-Mar-30 10:00S 34°33' E 018°35'612.6
2019-Mar-30 09:30S 34°36' E 018°42'612.4
2019-Mar-30 08:59S 34°39' E 018°49'612.1
2019-Mar-30 08:30S 34°41' E 018°55'712.2
2019-Mar-30 07:57S 34°44' E 019°03'  
2019-Mar-27 23:42S 29°58' E 031°17'313.8
2019-Mar-27 23:28S 29°56' E 031°14'612.9
2019-Mar-27 23:00S 29°53' E 031°08'4 7.1
2019-Mar-27 22:30S 29°51' E 031°04'2 0.2
2019-Mar-27 11:32S 29°53' E 031°02'0 3.7
2019-Mar-27 11:30S 29°53' E 031°03'4 7.3
2019-Mar-27 11:00S 29°50' E 031°05'8 7.5
2019-Mar-27 09:55S 29°45' E 031°13'1 2.5
2019-Mar-27 09:30S 29°44' E 031°14'0 0.2
2019-Mar-27 09:00S 29°44' E 031°14'0 0.0
2019-Mar-27 08:30S 29°44' E 031°14'0 0.0
2019-Mar-27 08:00S 29°44' E 031°14'0 0.1
2019-Mar-27 07:27S 29°44' E 031°14'0 0.1
2019-Mar-27 07:00S 29°44' E 031°14'3 5.3
2019-Mar-27 06:30S 29°44' E 031°17'612.8
2019-Mar-27 06:00S 29°40' E 031°23'813.2
2019-Mar-27 05:25S 29°36' E 031°31'  

Dump ship's entire track history